Time;durP1;ratioP1;P1;durP2;ratioP2;P2;SDS_P1;SDS_P2;PMS_P1;PMS_P2;Temp;Humidity;BMP_temperature;BMP_pressure;BME280_temperature;BME280_humidity;BME280_pressure;Samples;Min_cycle;Max_cycle;Signal;HPM_P1;HPM_P2
2022/10/08 00:00:15;;;;;;;49.30;30.60;;;;;;;;;;5095195;28;20541;-59
2022/10/08 00:02:42;;;;;;;46.43;26.43;;;;;;;;;;5094918;28;20856;-59
2022/10/08 00:05:10;;;;;;;29.77;18.30;;;;;;;;;;5095184;28;20548;-59
2022/10/08 00:07:38;;;;;;;33.83;19.37;;;;;;;;;;5095132;28;20450;-59
2022/10/08 00:10:07;;;;;;;17.33;10.30;;;;;;;;;;5095009;28;20541;-59
2022/10/08 00:12:34;;;;;;;19.03;10.60;;;;;;;;;;5094887;28;20893;-59
2022/10/08 00:15:01;;;;;;;13.00;9.10;;;;;;;;;;5094767;28;20549;-59
2022/10/08 00:17:28;;;;;;;12.27;7.97;;;;;;;;;;5094799;28;20492;-59
2022/10/08 00:19:56;;;;;;;8.90;5.63;;;;;;;;;;5093900;28;20452;-59
2022/10/08 00:22:23;;;;;;;9.70;6.37;;;;;;;;;;5094728;28;20484;-59
2022/10/08 00:24:52;;;;;;;9.67;8.00;;;;;;;;;;5094456;28;20603;-59
2022/10/08 00:27:22;;;;;;;8.20;7.40;;;;;;;;;;5094642;28;20442;-59
2022/10/08 00:29:49;;;;;;;9.87;9.07;;;;;;;;;;5094499;28;20947;-59
2022/10/08 00:32:18;;;;;;;9.73;8.93;;;;;;;;;;5094632;28;20537;-59
2022/10/08 00:34:45;;;;;;;9.73;7.00;;;;;;;;;;5094600;28;20443;-59
2022/10/08 00:37:12;;;;;;;5.07;4.63;;;;;;;;;;5094391;28;20489;-59
2022/10/08 00:39:40;;;;;;;6.30;4.70;;;;;;;;;;5094370;28;20447;-59
2022/10/08 00:42:07;;;;;;;4.73;4.33;;;;;;;;;;5094272;28;20583;-59
2022/10/08 00:44:55;;;;;;;5.83;4.30;;;;;;;;;;5094193;28;20533;-59
2022/10/08 00:47:26;;;;;;;7.70;4.30;;;;;;;;;;5094362;28;20446;-59
2022/10/08 00:49:54;;;;;;;5.40;4.53;;;;;;;;;;5094193;28;20639;-59
2022/10/08 00:52:22;;;;;;;5.13;4.37;;;;;;;;;;5094062;28;20453;-59
2022/10/08 00:54:50;;;;;;;5.37;4.30;;;;;;;;;;5093960;28;20451;-59
2022/10/08 00:57:17;;;;;;;5.13;4.63;;;;;;;;;;5094182;28;20503;-59
2022/10/08 00:59:44;;;;;;;4.70;4.20;;;;;;;;;;5094096;28;20447;-59
2022/10/08 01:02:13;;;;;;;4.23;3.90;;;;;;;;;;5094006;28;20453;-59
2022/10/08 01:04:40;;;;;;;5.07;4.50;;;;;;;;;;5093919;28;20447;-59
2022/10/08 01:07:13;;;;;;;5.87;5.40;;;;;;;;;;5093822;28;20817;-59
2022/10/08 01:09:42;;;;;;;5.00;4.47;;;;;;;;;;5093785;28;21033;-59
2022/10/08 01:12:12;;;;;;;6.40;5.03;;;;;;;;;;5093881;28;20453;-59
2022/10/08 01:14:43;;;;;;;7.87;5.67;;;;;;;;;;5094215;28;20787;-59
2022/10/08 01:17:14;;;;;;;6.77;5.30;;;;;;;;;;5093632;28;20561;-59
2022/10/08 01:19:49;;;;;;;4.87;4.47;;;;;;;;;;5093557;28;20904;-59
2022/10/08 01:22:23;;;;;;;7.27;4.87;;;;;;;;;;5093722;28;20502;-59
2022/10/08 01:27:41;;;;;;;4.77;4.47;;;;;;;;;;5093552;28;20449;-59
2022/10/08 01:30:10;;;;;;;4.30;3.63;;;;;;;;;;5093215;28;20492;-59
2022/10/08 01:32:39;;;;;;;8.00;4.50;;;;;;;;;;5093520;28;20538;-59
2022/10/08 01:35:09;;;;;;;5.90;4.40;;;;;;;;;;5093521;28;20541;-59
2022/10/08 01:37:39;;;;;;;4.70;4.07;;;;;;;;;;5093333;28;20514;-59
2022/10/08 01:40:09;;;;;;;6.37;5.03;;;;;;;;;;5093370;28;20461;-59
2022/10/08 01:42:39;;;;;;;5.17;4.33;;;;;;;;;;5093122;28;20450;-59
2022/10/08 01:45:08;;;;;;;8.40;4.43;;;;;;;;;;5093403;28;20443;-59
2022/10/08 01:47:38;;;;;;;16.13;5.50;;;;;;;;;;5093319;28;20530;-59
2022/10/08 01:50:11;;;;;;;9.17;4.80;;;;;;;;;;5093375;28;20458;-59
2022/10/08 01:52:41;;;;;;;5.13;4.70;;;;;;;;;;5093388;28;20848;-59
2022/10/08 01:55:10;;;;;;;5.33;4.83;;;;;;;;;;5093189;28;20455;-59
2022/10/08 01:57:40;;;;;;;5.53;4.80;;;;;;;;;;5093202;28;20565;-60
2022/10/08 02:00:08;;;;;;;7.20;5.00;;;;;;;;;;5093184;28;20453;-59
2022/10/08 02:02:35;;;;;;;9.10;4.83;;;;;;;;;;5093144;28;20450;-59
2022/10/08 02:05:02;;;;;;;5.20;4.37;;;;;;;;;;5093018;28;20537;-59
2022/10/08 02:07:31;;;;;;;7.37;4.50;;;;;;;;;;5092979;28;20533;-59
2022/10/08 02:10:03;;;;;;;4.70;4.30;;;;;;;;;;5092858;28;20941;-59
2022/10/08 02:12:30;;;;;;;4.00;3.70;;;;;;;;;;5092959;28;20540;-59
2022/10/08 02:14:59;;;;;;;6.70;4.63;;;;;;;;;;5092981;28;20447;-59
2022/10/08 02:17:29;;;;;;;6.70;4.87;;;;;;;;;;5092932;28;20581;-59
2022/10/08 02:19:58;;;;;;;8.77;5.27;;;;;;;;;;5092894;28;20442;-60
2022/10/08 02:22:29;;;;;;;7.07;4.50;;;;;;;;;;5092684;28;20533;-59
2022/10/08 02:24:59;;;;;;;6.70;4.73;;;;;;;;;;5092732;28;20920;-59
2022/10/08 02:27:28;;;;;;;7.40;4.83;;;;;;;;;;5093011;28;20458;-59
2022/10/08 02:30:00;;;;;;;5.03;4.63;;;;;;;;;;5092874;28;20442;-59
2022/10/08 02:32:30;;;;;;;5.33;4.87;;;;;;;;;;5092684;28;20538;-59
2022/10/08 02:34:59;;;;;;;7.37;5.10;;;;;;;;;;5093240;28;20469;-59
2022/10/08 02:37:29;;;;;;;4.73;4.33;;;;;;;;;;5092753;28;20480;-59
2022/10/08 02:39:59;;;;;;;5.30;4.90;;;;;;;;;;5092871;28;20886;-59
2022/10/08 02:42:27;;;;;;;4.50;3.97;;;;;;;;;;5093201;28;20957;-59
2022/10/08 02:44:58;;;;;;;4.87;4.00;;;;;;;;;;5096694;28;20443;-59
2022/10/08 02:47:28;;;;;;;5.07;4.67;;;;;;;;;;5096783;28;20445;-59
2022/10/08 02:49:57;;;;;;;7.50;4.77;;;;;;;;;;5096599;28;20442;-59
2022/10/08 02:52:27;;;;;;;6.60;4.70;;;;;;;;;;5096576;28;20545;-59
2022/10/08 02:54:55;;;;;;;5.13;4.27;;;;;;;;;;5096522;28;20797;-59
2022/10/08 02:57:24;;;;;;;4.90;4.50;;;;;;;;;;5096229;28;20570;-59
2022/10/08 02:59:51;;;;;;;6.43;5.30;;;;;;;;;;5096175;28;20447;-59
2022/10/08 03:02:20;;;;;;;4.40;4.00;;;;;;;;;;5096382;28;20533;-59
2022/10/08 03:04:49;;;;;;;5.70;4.37;;;;;;;;;;5096435;28;20864;-59
2022/10/08 03:07:17;;;;;;;6.57;4.93;;;;;;;;;;5096285;28;20442;-59
2022/10/08 03:09:45;;;;;;;4.70;4.37;;;;;;;;;;5096131;28;20541;-59
2022/10/08 03:12:12;;;;;;;11.33;5.63;;;;;;;;;;5095926;28;20486;-59
2022/10/08 03:14:40;;;;;;;6.07;4.80;;;;;;;;;;5096266;28;20529;-59
2022/10/08 03:17:08;;;;;;;7.03;5.53;;;;;;;;;;5096002;28;20613;-59
2022/10/08 03:19:35;;;;;;;5.73;5.20;;;;;;;;;;5095940;28;20461;-59
2022/10/08 03:22:04;;;;;;;7.27;5.77;;;;;;;;;;5095778;28;20997;-60
2022/10/08 03:24:30;;;;;;;5.13;4.70;;;;;;;;;;5095654;28;20480;-59
2022/10/08 03:26:57;;;;;;;7.80;6.23;;;;;;;;;;5095791;28;20446;-59
2022/10/08 03:29:24;;;;;;;6.30;5.17;;;;;;;;;;5095874;28;20533;-60
2022/10/08 03:31:51;;;;;;;5.00;4.60;;;;;;;;;;5095785;28;20501;-59
2022/10/08 03:34:18;;;;;;;5.50;5.00;;;;;;;;;;5095737;28;20489;-59
2022/10/08 03:36:45;;;;;;;6.47;4.13;;;;;;;;;;5095616;28;20549;-59
2022/10/08 03:39:13;;;;;;;6.50;4.50;;;;;;;;;;5095546;28;20450;-59
2022/10/08 03:41:40;;;;;;;4.47;4.17;;;;;;;;;;5095675;28;20565;-59
2022/10/08 03:44:08;;;;;;;4.17;3.87;;;;;;;;;;5095391;28;20451;-59
2022/10/08 03:46:35;;;;;;;5.23;4.70;;;;;;;;;;5095462;28;20841;-59
2022/10/08 03:49:02;;;;;;;9.27;5.73;;;;;;;;;;5095398;28;20451;-59
2022/10/08 03:51:29;;;;;;;5.93;5.00;;;;;;;;;;5095357;28;20447;-59
2022/10/08 03:53:56;;;;;;;5.67;4.77;;;;;;;;;;5095156;28;20454;-59
2022/10/08 03:56:24;;;;;;;4.87;4.30;;;;;;;;;;5095421;28;20537;-59
2022/10/08 03:58:53;;;;;;;4.40;4.00;;;;;;;;;;5095157;28;20482;-59
2022/10/08 04:01:20;;;;;;;5.17;4.67;;;;;;;;;;5095079;28;20534;-59
2022/10/08 04:03:47;;;;;;;4.93;4.50;;;;;;;;;;5095039;28;20545;-59
2022/10/08 04:06:14;;;;;;;8.50;4.50;;;;;;;;;;5094992;28;20489;-59
2022/10/08 04:08:41;;;;;;;6.77;4.80;;;;;;;;;;5094909;28;20442;-59
2022/10/08 04:11:09;;;;;;;9.27;5.07;;;;;;;;;;5095115;28;20787;-59
2022/10/08 04:13:38;;;;;;;7.20;5.23;;;;;;;;;;5095037;28;20973;-59
2022/10/08 04:16:06;;;;;;;5.37;4.87;;;;;;;;;;5094917;28;20545;-59
2022/10/08 04:18:32;;;;;;;6.27;4.40;;;;;;;;;;5094800;28;20485;-59
2022/10/08 04:21:00;;;;;;;4.70;4.20;;;;;;;;;;5094698;28;20446;-59
2022/10/08 04:23:27;;;;;;;6.73;4.47;;;;;;;;;;5094707;28;20779;-59
2022/10/08 04:25:55;;;;;;;4.93;4.13;;;;;;;;;;5094810;28;20533;-59
2022/10/08 04:28:22;;;;;;;4.40;4.03;;;;;;;;;;5094600;28;20454;-59
2022/10/08 04:30:58;;;;;;;5.20;4.73;;;;;;;;;;5094492;28;20930;-59
2022/10/08 04:33:25;;;;;;;10.73;5.63;;;;;;;;;;5094389;28;20453;-59
2022/10/08 04:35:52;;;;;;;7.70;4.70;;;;;;;;;;5094499;28;20457;-59
2022/10/08 04:38:19;;;;;;;7.00;6.10;;;;;;;;;;5094439;28;20572;-59
2022/10/08 04:40:46;;;;;;;8.37;4.90;;;;;;;;;;5094512;28;20453;-59
2022/10/08 04:43:13;;;;;;;5.23;4.73;;;;;;;;;;5094404;28;20478;-59
2022/10/08 04:45:43;;;;;;;7.10;4.60;;;;;;;;;;5094597;28;20452;-59
2022/10/08 04:48:11;;;;;;;9.90;6.00;;;;;;;;;;5094369;28;20887;-59
2022/10/08 04:50:38;;;;;;;7.07;5.73;;;;;;;;;;5094346;28;20537;-59
2022/10/08 04:53:06;;;;;;;7.87;5.20;;;;;;;;;;5094018;28;20545;-59
2022/10/08 04:55:33;;;;;;;6.73;5.93;;;;;;;;;;5094197;28;20557;-59
2022/10/08 04:58:00;;;;;;;7.03;6.33;;;;;;;;;;5094005;28;20484;-59
2022/10/08 05:00:27;;;;;;;7.50;6.90;;;;;;;;;;5093949;28;20469;-59
2022/10/08 05:02:54;;;;;;;7.90;6.20;;;;;;;;;;5093886;28;20553;-59
2022/10/08 05:05:23;;;;;;;6.63;5.93;;;;;;;;;;5093419;28;20537;-59
2022/10/08 05:07:52;;;;;;;7.03;6.43;;;;;;;;;;5093730;28;20946;-59
2022/10/08 05:10:19;;;;;;;6.97;6.27;;;;;;;;;;5093915;28;20493;-59
2022/10/08 05:12:46;;;;;;;7.43;6.50;;;;;;;;;;5093751;28;20473;-59
2022/10/08 05:15:13;;;;;;;8.00;7.20;;;;;;;;;;5093638;28;20445;-59
2022/10/08 05:17:40;;;;;;;8.50;7.30;;;;;;;;;;5093822;28;20823;-60
2022/10/08 05:20:07;;;;;;;7.70;6.30;;;;;;;;;;5094026;28;20576;-59
2022/10/08 05:22:35;;;;;;;7.60;6.80;;;;;;;;;;5093649;28;20475;-59
2022/10/08 05:25:02;;;;;;;7.23;6.63;;;;;;;;;;5093402;28;20581;-59
2022/10/08 05:27:30;;;;;;;9.03;6.80;;;;;;;;;;5093505;28;20545;-59
2022/10/08 05:29:56;;;;;;;7.60;6.90;;;;;;;;;;5093654;28;20454;-59
2022/10/08 05:32:23;;;;;;;7.20;6.47;;;;;;;;;;5093525;28;20541;-59
2022/10/08 05:34:50;;;;;;;8.07;6.07;;;;;;;;;;5093356;28;21028;-59
2022/10/08 05:37:17;;;;;;;8.70;5.63;;;;;;;;;;5093394;28;20533;-59
2022/10/08 05:39:45;;;;;;;6.80;6.30;;;;;;;;;;5093245;28;20902;-59
2022/10/08 05:42:12;;;;;;;7.47;6.67;;;;;;;;;;5093173;28;20529;-59
2022/10/08 05:44:40;;;;;;;9.00;6.80;;;;;;;;;;5093433;28;20558;-59
2022/10/08 05:47:07;;;;;;;8.80;5.97;;;;;;;;;;5093379;28;20450;-59
2022/10/08 05:49:33;;;;;;;8.17;5.63;;;;;;;;;;5093210;28;20541;-59
2022/10/08 05:52:01;;;;;;;9.07;6.27;;;;;;;;;;5093125;28;20450;-59
2022/10/08 05:54:27;;;;;;;10.00;6.80;;;;;;;;;;5093046;28;20934;-59
2022/10/08 05:56:56;;;;;;;9.17;7.90;;;;;;;;;;5093001;28;20537;-59
2022/10/08 05:59:25;;;;;;;8.40;6.33;;;;;;;;;;5093086;28;20573;-59
2022/10/08 06:01:52;;;;;;;8.40;7.50;;;;;;;;;;5093104;28;20542;-60
2022/10/08 06:04:19;;;;;;;9.73;7.43;;;;;;;;;;5093014;28;20538;-60
2022/10/08 06:06:46;;;;;;;7.50;6.90;;;;;;;;;;5092949;28;20537;-59
2022/10/08 06:09:14;;;;;;;6.30;5.80;;;;;;;;;;5092827;28;20460;-59
2022/10/08 06:11:41;;;;;;;14.33;6.70;;;;;;;;;;5093009;28;20827;-59
2022/10/08 06:14:10;;;;;;;9.73;6.37;;;;;;;;;;5092927;28;20458;-59
2022/10/08 06:16:37;;;;;;;7.43;5.67;;;;;;;;;;5092997;28;20542;-59
2022/10/08 06:19:05;;;;;;;9.23;5.83;;;;;;;;;;5096333;28;20500;-59
2022/10/08 06:21:33;;;;;;;6.50;5.97;;;;;;;;;;5096976;28;20963;-59
2022/10/08 06:24:01;;;;;;;5.90;5.40;;;;;;;;;;5096654;28;20470;-59
2022/10/08 06:26:28;;;;;;;7.03;6.33;;;;;;;;;;5097149;28;20452;-59
2022/10/08 06:28:56;;;;;;;7.20;6.40;;;;;;;;;;5097040;28;20446;-59
2022/10/08 06:31:24;;;;;;;7.80;7.00;;;;;;;;;;5096809;28;20537;-59
2022/10/08 06:33:51;;;;;;;8.50;6.43;;;;;;;;;;5096798;28;20916;-59
2022/10/08 06:36:22;;;;;;;7.97;7.27;;;;;;;;;;5096683;28;20441;-59
2022/10/08 06:38:49;;;;;;;9.07;8.10;;;;;;;;;;5096863;28;20478;-58
2022/10/08 06:41:16;;;;;;;11.50;8.20;;;;;;;;;;5096724;28;20446;-59
2022/10/08 06:43:43;;;;;;;10.80;7.67;;;;;;;;;;5096624;28;20472;-59
2022/10/08 06:46:10;;;;;;;13.67;8.47;;;;;;;;;;5096670;28;20890;-59
2022/10/08 06:48:39;;;;;;;11.23;9.27;;;;;;;;;;5096517;28;20454;-59
2022/10/08 06:51:07;;;;;;;13.53;8.97;;;;;;;;;;5096788;28;20457;-59
2022/10/08 06:53:34;;;;;;;9.97;9.07;;;;;;;;;;5096503;28;20457;-59
2022/10/08 06:56:02;;;;;;;11.50;9.83;;;;;;;;;;5096554;28;20541;-59
2022/10/08 06:58:30;;;;;;;10.43;9.53;;;;;;;;;;5096341;28;20562;-59
2022/10/08 07:01:03;;;;;;;10.90;9.70;;;;;;;;;;5096272;28;20538;-59
2022/10/08 07:03:30;;;;;;;14.23;8.93;;;;;;;;;;5096123;28;20450;-59
2022/10/08 07:06:01;;;;;;;11.80;9.20;;;;;;;;;;5096130;28;21029;-60
2022/10/08 07:08:28;;;;;;;10.50;9.40;;;;;;;;;;5096277;28;20454;-59
2022/10/08 07:10:55;;;;;;;13.17;10.87;;;;;;;;;;5096117;28;20537;-59
2022/10/08 07:13:22;;;;;;;11.97;10.70;;;;;;;;;;5096053;28;20890;-59
2022/10/08 07:15:48;;;;;;;11.90;10.63;;;;;;;;;;5096025;28;20451;-59
2022/10/08 07:18:15;;;;;;;10.47;9.40;;;;;;;;;;5095830;28;21013;-59
2022/10/08 07:20:42;;;;;;;10.03;8.97;;;;;;;;;;5095966;28;20452;-60
2022/10/08 07:23:11;;;;;;;11.20;9.10;;;;;;;;;;5095888;28;20478;-59
2022/10/08 07:25:38;;;;;;;9.80;8.90;;;;;;;;;;5095697;28;20470;-59
2022/10/08 07:28:04;;;;;;;9.10;8.30;;;;;;;;;;5095325;28;20558;-59
2022/10/08 07:30:31;;;;;;;11.83;9.80;;;;;;;;;;5095664;28;20549;-59
2022/10/08 07:32:59;;;;;;;13.10;11.50;;;;;;;;;;5095795;28;20475;-59
2022/10/08 07:35:26;;;;;;;10.53;9.47;;;;;;;;;;5095639;28;20446;-60
2022/10/08 07:37:53;;;;;;;11.00;10.00;;;;;;;;;;5095475;28;20965;-59
2022/10/08 07:40:21;;;;;;;10.27;9.37;;;;;;;;;;5095605;28;20477;-60
2022/10/08 07:42:48;;;;;;;19.73;14.90;;;;;;;;;;5095572;28;20478;-59
2022/10/08 07:45:15;;;;;;;16.57;14.90;;;;;;;;;;5095621;28;20537;-59
2022/10/08 07:47:42;;;;;;;14.77;12.00;;;;;;;;;;5095721;28;20438;-60
2022/10/08 07:50:09;;;;;;;11.40;10.20;;;;;;;;;;5095504;28;20451;-59
2022/10/08 07:52:36;;;;;;;11.27;10.27;;;;;;;;;;5095325;28;20442;-59
2022/10/08 07:55:03;;;;;;;10.40;8.77;;;;;;;;;;5095204;28;20945;-59
2022/10/08 07:57:31;;;;;;;8.30;7.50;;;;;;;;;;5095105;28;20529;-59
2022/10/08 07:59:58;;;;;;;8.90;7.83;;;;;;;;;;5095402;28;20564;-59
2022/10/08 08:02:25;;;;;;;12.60;9.03;;;;;;;;;;5095226;28;20537;-59
2022/10/08 08:04:52;;;;;;;9.63;7.63;;;;;;;;;;5095160;28;20450;-59
2022/10/08 08:07:19;;;;;;;9.67;8.70;;;;;;;;;;5095130;28;20533;-59
2022/10/08 08:09:46;;;;;;;9.83;8.43;;;;;;;;;;5095015;28;21016;-59
2022/10/08 08:12:13;;;;;;;8.80;8.00;;;;;;;;;;5094776;28;20457;-60
2022/10/08 08:14:41;;;;;;;11.70;7.90;;;;;;;;;;5095134;28;20881;-60
2022/10/08 08:17:08;;;;;;;8.80;6.40;;;;;;;;;;5095242;28;20537;-59
2022/10/08 08:19:38;;;;;;;12.33;6.60;;;;;;;;;;5094756;28;20569;-59
2022/10/08 08:22:05;;;;;;;12.50;6.43;;;;;;;;;;5094692;28;20446;-59
2022/10/08 08:24:32;;;;;;;10.27;5.80;;;;;;;;;;5094426;28;20543;-60
2022/10/08 08:26:59;;;;;;;6.70;5.23;;;;;;;;;;5094640;28;20997;-60
2022/10/08 08:29:26;;;;;;;7.17;5.30;;;;;;;;;;5094699;28;20446;-59
2022/10/08 08:31:54;;;;;;;9.70;4.60;;;;;;;;;;5094670;28;20562;-60
2022/10/08 08:34:22;;;;;;;4.30;3.87;;;;;;;;;;5094535;28;20457;-60
2022/10/08 08:36:50;;;;;;;6.70;4.60;;;;;;;;;;5094473;28;20446;-59
2022/10/08 08:39:18;;;;;;;6.13;4.27;;;;;;;;;;5094133;28;20475;-59
2022/10/08 08:41:52;;;;;;;7.30;4.27;;;;;;;;;;5093635;28;20545;-59
2022/10/08 08:44:21;;;;;;;6.60;4.47;;;;;;;;;;5094344;28;20507;-59
2022/10/08 08:46:50;;;;;;;8.37;4.03;;;;;;;;;;5094320;28;20447;-59
2022/10/08 08:49:25;;;;;;;5.50;3.80;;;;;;;;;;5094229;28;20537;-59
2022/10/08 08:51:52;;;;;;;6.70;3.83;;;;;;;;;;5094126;28;20857;-60
2022/10/08 08:54:19;;;;;;;10.53;4.40;;;;;;;;;;5094186;28;20477;-60
2022/10/08 08:56:46;;;;;;;7.77;3.97;;;;;;;;;;5094211;28;20496;-59
2022/10/08 08:59:23;;;;;;;8.00;4.50;;;;;;;;;;5094042;28;20580;-60
2022/10/08 09:01:50;;;;;;;6.03;4.27;;;;;;;;;;5093926;28;20541;-59
2022/10/08 09:04:20;;;;;;;5.83;4.37;;;;;;;;;;5093717;28;20542;-59
2022/10/08 09:06:49;;;;;;;5.97;4.30;;;;;;;;;;5093986;28;20457;-60
2022/10/08 09:09:20;;;;;;;6.97;3.90;;;;;;;;;;5093826;28;20453;-59
2022/10/08 09:11:48;;;;;;;6.20;4.37;;;;;;;;;;5093821;28;20541;-60
2022/10/08 09:14:25;;;;;;;9.53;3.67;;;;;;;;;;5093640;28;20950;-60
2022/10/08 09:16:52;;;;;;;8.77;4.13;;;;;;;;;;5093551;28;20504;-60
2022/10/08 09:19:19;;;;;;;4.60;3.70;;;;;;;;;;5093701;28;20479;-60
2022/10/08 09:21:46;;;;;;;5.53;3.70;;;;;;;;;;5093659;28;20454;-59
2022/10/08 09:24:15;;;;;;;6.60;4.70;;;;;;;;;;5093438;28;21289;-60
2022/10/08 09:26:43;;;;;;;5.27;3.10;;;;;;;;;;5093587;28;20551;-60
2022/10/08 09:29:30;;;;;;;5.03;2.83;;;;;;;;;;5093393;28;20548;-60
2022/10/08 09:31:58;;;;;;;7.00;3.27;;;;;;;;;;5093561;28;20434;-60
2022/10/08 09:34:26;;;;;;;7.83;3.17;;;;;;;;;;5093380;28;20896;-60
2022/10/08 09:36:53;;;;;;;8.30;3.07;;;;;;;;;;5093394;28;20538;-59
2022/10/08 09:39:22;;;;;;;8.23;3.17;;;;;;;;;;5093240;28;20560;-59
2022/10/08 09:42:04;;;;;;;4.23;3.47;;;;;;;;;;5093002;28;20482;-60
2022/10/08 09:44:39;;;;;;;8.10;2.50;;;;;;;;;;5093333;28;20539;-60
2022/10/08 09:47:06;;;;;;;8.73;3.43;;;;;;;;;;5093226;28;20456;-59
2022/10/08 09:49:34;;;;;;;9.80;3.60;;;;;;;;;;5093181;28;20454;-59
2022/10/08 09:52:02;;;;;;;6.43;3.00;;;;;;;;;;5092955;28;20446;-59
2022/10/08 09:54:33;;;;;;;7.67;3.00;;;;;;;;;;5093045;28;20591;-60
2022/10/08 09:57:01;;;;;;;5.53;2.90;;;;;;;;;;5093296;28;20446;-60
2022/10/08 09:59:28;;;;;;;6.30;2.50;;;;;;;;;;5093060;28;20553;-60
2022/10/08 10:01:56;;;;;;;4.63;3.00;;;;;;;;;;5093012;28;20806;-60
2022/10/08 10:04:29;;;;;;;3.10;2.23;;;;;;;;;;5092933;28;20809;-60
2022/10/08 10:06:56;;;;;;;5.83;2.07;;;;;;;;;;5092742;28;20555;-60
2022/10/08 10:09:26;;;;;;;3.83;2.50;;;;;;;;;;5093037;28;20510;-59
2022/10/08 10:11:56;;;;;;;7.60;2.87;;;;;;;;;;5092988;28;20474;-60
2022/10/08 10:14:25;;;;;;;7.30;2.63;;;;;;;;;;5092833;28;20442;-59
2022/10/08 10:16:56;;;;;;;8.17;2.53;;;;;;;;;;5092823;28;20533;-60
2022/10/08 10:19:26;;;;;;;4.80;2.20;;;;;;;;;;5092601;28;20549;-60
2022/10/08 10:21:56;;;;;;;4.07;2.87;;;;;;;;;;5092857;28;20450;-60
2022/10/08 10:24:28;;;;;;;7.03;2.70;;;;;;;;;;5092589;28;20466;-60
2022/10/08 10:26:59;;;;;;;5.10;2.93;;;;;;;;;;5092770;28;20453;-59
2022/10/08 10:29:29;;;;;;;4.93;2.07;;;;;;;;;;5092693;28;20538;-59
2022/10/08 10:31:59;;;;;;;6.50;2.70;;;;;;;;;;5092602;28;20732;-60
2022/10/08 10:34:28;;;;;;;3.77;2.07;;;;;;;;;;5092817;28;20446;-60
2022/10/08 10:36:57;;;;;;;6.33;1.90;;;;;;;;;;5092694;28;20443;-60
2022/10/08 10:39:29;;;;;;;5.47;2.40;;;;;;;;;;5092566;28;20475;-59
2022/10/08 10:42:01;;;;;;;6.67;2.37;;;;;;;;;;5092630;28;20608;-60
2022/10/08 10:44:33;;;;;;;6.40;2.10;;;;;;;;;;5092406;28;20451;-59
2022/10/08 10:47:02;;;;;;;3.20;2.40;;;;;;;;;;5092551;28;20942;-59
2022/10/08 10:49:32;;;;;;;4.40;1.90;;;;;;;;;;5092542;28;20966;-60
2022/10/08 10:52:02;;;;;;;4.23;1.90;;;;;;;;;;5092635;28;20549;-60
2022/10/08 10:54:36;;;;;;;4.77;1.80;;;;;;;;;;5092380;28;20453;-59
2022/10/08 10:57:09;;;;;;;5.60;2.53;;;;;;;;;;5092443;28;20449;-59
2022/10/08 10:59:44;;;;;;;8.47;2.30;;;;;;;;;;5092493;28;20470;-59
2022/10/08 11:02:14;;;;;;;4.30;2.43;;;;;;;;;;5092432;28;20852;-60
2022/10/08 11:04:46;;;;;;;4.93;2.73;;;;;;;;;;5094910;28;20897;-60
2022/10/08 11:07:27;;;;;;;3.73;2.57;;;;;;;;;;5096100;28;20450;-60
2022/10/08 11:09:58;;;;;;;7.83;2.57;;;;;;;;;;5096258;28;20486;-60
2022/10/08 11:12:30;;;;;;;2.73;2.17;;;;;;;;;;5096113;28;20486;-59
2022/10/08 11:15:06;;;;;;;4.27;2.27;;;;;;;;;;5095975;28;20542;-59
2022/10/08 11:17:39;;;;;;;4.93;2.80;;;;;;;;;;5095836;28;21008;-59
2022/10/08 11:20:18;;;;;;;3.00;2.40;;;;;;;;;;5096062;28;20574;-59
2022/10/08 11:22:48;;;;;;;6.27;2.80;;;;;;;;;;5095984;28;20545;-59
2022/10/08 11:25:20;;;;;;;7.93;3.00;;;;;;;;;;5095817;28;20556;-60
2022/10/08 11:27:54;;;;;;;4.17;2.93;;;;;;;;;;5095941;28;20540;-59
2022/10/08 11:30:22;;;;;;;5.10;2.60;;;;;;;;;;5095826;28;20964;-59
2022/10/08 11:32:50;;;;;;;3.77;3.07;;;;;;;;;;5095664;28;20552;-59
2022/10/08 11:35:21;;;;;;;6.93;3.23;;;;;;;;;;5095832;28;20457;-59
2022/10/08 11:37:51;;;;;;;4.40;2.93;;;;;;;;;;5095740;28;20451;-59
2022/10/08 11:40:23;;;;;;;6.47;3.33;;;;;;;;;;5095582;28;20553;-59
2022/10/08 11:42:53;;;;;;;3.10;2.90;;;;;;;;;;5095277;28;20457;-59
2022/10/08 11:45:30;;;;;;;5.17;3.13;;;;;;;;;;5095634;28;20456;-59
2022/10/08 11:47:58;;;;;;;5.23;3.03;;;;;;;;;;5095621;28;20450;-59
2022/10/08 11:50:27;;;;;;;6.60;3.17;;;;;;;;;;5095471;28;20883;-59
2022/10/08 11:52:55;;;;;;;4.67;3.20;;;;;;;;;;5095363;28;20450;-60
2022/10/08 11:55:24;;;;;;;5.83;3.40;;;;;;;;;;5095613;28;20446;-59
2022/10/08 11:57:57;;;;;;;5.63;2.83;;;;;;;;;;5095377;28;20485;-59
2022/10/08 12:00:32;;;;;;;6.03;2.70;;;;;;;;;;5095309;28;20906;-59
2022/10/08 12:02:59;;;;;;;5.83;4.03;;;;;;;;;;5095225;28;20972;-59
2022/10/08 12:05:34;;;;;;;4.07;3.23;;;;;;;;;;5095122;28;20447;-60
2022/10/08 12:08:04;;;;;;;8.23;4.60;;;;;;;;;;5095347;28;20456;-60
2022/10/08 12:10:32;;;;;;;8.00;3.80;;;;;;;;;;5095432;28;20848;-60
2022/10/08 12:13:02;;;;;;;5.77;3.83;;;;;;;;;;5094944;28;20453;-60
2022/10/08 12:15:48;;;;;;;4.13;3.63;;;;;;;;;;5093991;28;20537;-59
2022/10/08 12:18:33;;;;;;;6.60;3.57;;;;;;;;;;5095001;28;20541;-59
2022/10/08 12:21:19;;;;;;;4.73;4.30;;;;;;;;;;5094985;28;20551;-59
2022/10/08 12:23:46;;;;;;;6.03;4.70;;;;;;;;;;5094398;28;20490;-59
2022/10/08 12:26:14;;;;;;;6.60;4.00;;;;;;;;;;5094699;28;20481;-59
2022/10/08 12:28:49;;;;;;;4.97;4.47;;;;;;;;;;5094731;28;20442;-59
2022/10/08 12:31:17;;;;;;;4.43;3.97;;;;;;;;;;5094902;28;20464;-59
2022/10/08 12:33:44;;;;;;;7.30;4.80;;;;;;;;;;5094628;28;20450;-60
2022/10/08 12:36:15;;;;;;;5.17;4.50;;;;;;;;;;5094512;28;20473;-59
2022/10/08 12:38:49;;;;;;;5.80;4.20;;;;;;;;;;5094509;28;20450;-59
2022/10/08 12:41:19;;;;;;;9.50;4.00;;;;;;;;;;5094526;28;20518;-59
2022/10/08 12:43:51;;;;;;;8.43;4.20;;;;;;;;;;5094548;28;20442;-59
2022/10/08 12:46:25;;;;;;;7.73;4.37;;;;;;;;;;5094258;28;20957;-59
2022/10/08 12:48:54;;;;;;;8.90;4.00;;;;;;;;;;5094407;28;20447;-59
2022/10/08 12:51:25;;;;;;;8.27;4.47;;;;;;;;;;5094226;28;20444;-59
2022/10/08 12:53:52;;;;;;;5.20;4.00;;;;;;;;;;5094313;28;20457;-61
2022/10/08 12:56:25;;;;;;;10.00;4.00;;;;;;;;;;5094185;28;20453;-60
2022/10/08 12:58:55;;;;;;;9.73;5.20;;;;;;;;;;5094140;28;20537;-59
2022/10/08 13:01:22;;;;;;;7.73;4.63;;;;;;;;;;5094099;28;20489;-59
2022/10/08 13:04:07;;;;;;;6.33;4.70;;;;;;;;;;5093788;28;20446;-59
2022/10/08 13:06:33;;;;;;;9.20;3.70;;;;;;;;;;5094169;28;20806;-60
2022/10/08 13:09:01;;;;;;;12.93;3.00;;;;;;;;;;5093945;28;20443;-59
2022/10/08 13:11:28;;;;;;;6.27;3.53;;;;;;;;;;5093962;28;20450;-59
2022/10/08 13:13:56;;;;;;;6.43;3.70;;;;;;;;;;5093732;28;20469;-59
2022/10/08 13:16:23;;;;;;;11.43;4.50;;;;;;;;;;5093704;28;20439;-60
2022/10/08 13:18:52;;;;;;;13.20;6.57;;;;;;;;;;5093952;28;20802;-59
2022/10/08 13:21:27;;;;;;;7.97;3.37;;;;;;;;;;5093782;28;20489;-59
2022/10/08 13:23:54;;;;;;;7.23;3.03;;;;;;;;;;5093600;28;20482;-59
2022/10/08 13:26:36;;;;;;;3.37;3.07;;;;;;;;;;5093239;28;20542;-59
2022/10/08 13:29:26;;;;;;;8.13;3.17;;;;;;;;;;5093573;28;20801;-60
2022/10/08 13:31:53;;;;;;;4.50;3.03;;;;;;;;;;5093736;28;20446;-59
2022/10/08 13:34:21;;;;;;;5.60;2.80;;;;;;;;;;5093474;28;20853;-59
2022/10/08 13:36:49;;;;;;;4.13;2.73;;;;;;;;;;5093530;28;20439;-59
2022/10/08 13:39:19;;;;;;;2.80;2.40;;;;;;;;;;5093192;28;20487;-59
2022/10/08 13:41:49;;;;;;;4.87;3.33;;;;;;;;;;5093541;28;20478;-60
2022/10/08 13:44:16;;;;;;;3.50;2.57;;;;;;;;;;5093371;28;20450;-59
2022/10/08 13:46:45;;;;;;;8.73;3.27;;;;;;;;;;5093318;28;20806;-59
2022/10/08 13:49:21;;;;;;;5.20;3.40;;;;;;;;;;5093266;28;20446;-59
2022/10/08 13:51:49;;;;;;;4.87;2.90;;;;;;;;;;5093182;28;20542;-59
2022/10/08 13:54:18;;;;;;;4.67;2.53;;;;;;;;;;5093170;28;20446;-59
2022/10/08 13:56:44;;;;;;;5.13;2.73;;;;;;;;;;5093307;28;20479;-59
2022/10/08 13:59:11;;;;;;;5.30;2.47;;;;;;;;;;5093248;28;20886;-59
2022/10/08 14:01:38;;;;;;;3.27;2.70;;;;;;;;;;5093110;28;20486;-59
2022/10/08 14:04:06;;;;;;;4.57;2.63;;;;;;;;;;5093018;28;20446;-59
2022/10/08 14:06:33;;;;;;;4.20;2.30;;;;;;;;;;5093026;28;20972;-59
2022/10/08 14:09:00;;;;;;;6.03;3.43;;;;;;;;;;5093158;28;20452;-59
2022/10/08 14:11:27;;;;;;;3.50;2.53;;;;;;;;;;5093082;28;20536;-59
2022/10/08 14:13:54;;;;;;;3.07;2.50;;;;;;;;;;5092885;28;20478;-59
2022/10/08 14:16:21;;;;;;;2.63;2.40;;;;;;;;;;5092865;28;20442;-59
2022/10/08 14:18:48;;;;;;;3.93;1.87;;;;;;;;;;5092812;28;20442;-60
2022/10/08 14:21:17;;;;;;;4.70;2.23;;;;;;;;;;5093016;28;20478;-59
2022/10/08 14:23:44;;;;;;;4.00;2.03;;;;;;;;;;5092717;28;20516;-59
2022/10/08 14:26:12;;;;;;;5.03;2.77;;;;;;;;;;5092688;28;20500;-59
2022/10/08 14:28:39;;;;;;;5.40;2.50;;;;;;;;;;5092813;28;20462;-60
2022/10/08 14:31:06;;;;;;;3.87;2.23;;;;;;;;;;5092690;28;20451;-59
2022/10/08 14:33:33;;;;;;;2.20;2.00;;;;;;;;;;5092701;28;20537;-59
2022/10/08 14:36:00;;;;;;;3.60;2.47;;;;;;;;;;5092854;28;20453;-59
2022/10/08 14:38:31;;;;;;;3.37;2.27;;;;;;;;;;5093533;28;20537;-59
2022/10/08 14:40:59;;;;;;;2.60;1.90;;;;;;;;;;5096853;28;20478;-59
2022/10/08 14:43:26;;;;;;;2.63;2.00;;;;;;;;;;5096758;28;20443;-59
2022/10/08 14:45:53;;;;;;;3.00;2.03;;;;;;;;;;5096588;28;20533;-59
2022/10/08 14:48:20;;;;;;;2.63;2.10;;;;;;;;;;5096879;28;20549;-59
2022/10/08 14:50:47;;;;;;;4.57;1.60;;;;;;;;;;5096781;28;20547;-59
2022/10/08 14:53:13;;;;;;;2.33;2.00;;;;;;;;;;5096624;28;20446;-59